Greenville, Missouri
Current Conditions -  °F | °C
As of 12:53 AM on Friday 26 Dec 2014 (Local Time) from KPOF Reporting Station
Clear Clear  
Wind Chill: 36°   Ceiling: Unl
Heat Index: 41°   Visibility: 10mi
Dew Point: 33°   Wind: 7mph
Humidity: 73%   Direction: 180°S
Pressure: 30.1"   Gusts: NA
Location:  37.13°N, 90.45°W
Report Text: KPOF 260653Z AUTO 18006KT 10SM CLR 05/01 A3010 RMK AO2 SLP196 T00500006
Loading
Personal Weather Stations






























Interactive Weather Map New forecast layout! Learn more

10-Day Weather Forecast

Advertisements
Track Severe Weather on mobile